Time;durP1;ratioP1;P1;durP2;ratioP2;P2;SDS_P1;SDS_P2;PMS_P1;PMS_P2;Temp;Humidity;BMP_temperature;BMP_pressure;BME280_temperature;BME280_humidity;BME280_pressure;Samples;Min_cycle;Max_cycle;Signal;HPM_P1;HPM_P2
2022/12/10 00:01:18;;;;;;;;;54.75;41.00;;;;;4.43;66.00;100370.16;5078224;27;45270;-63
2022/12/10 00:03:44;;;;;;;;;60.50;44.75;;;;;4.42;66.15;100384.00;5060022;27;45584;-64
2022/12/10 00:06:13;;;;;;;;;63.50;46.75;;;;;4.21;66.48;100377.47;5073861;27;45474;-65
2022/12/10 00:08:39;;;;;;;;;67.33;49.67;;;;;4.17;67.03;100386.03;5089496;27;45629;-64
2022/12/10 00:11:06;;;;;;;;;64.67;47.00;;;;;4.12;67.09;100394.56;5089842;27;45506;-63
2022/12/10 00:13:33;;;;;;;;;60.00;46.33;;;;;4.03;67.84;100392.63;5073922;28;45499;-70
2022/12/10 00:16:00;;;;;;;;;60.75;45.25;;;;;3.84;67.31;100373.19;5106586;27;45239;-63
2022/12/10 00:18:25;;;;;;;;;64.50;48.75;;;;;4.03;67.19;100396.09;5077617;28;45418;-72
2022/12/10 00:20:51;;;;;;;;;64.50;48.25;;;;;4.08;67.38;100403.09;5078553;27;45434;-67
2022/12/10 00:23:16;;;;;;;;;62.25;45.75;;;;;3.97;68.62;100406.31;5075462;28;47844;-63
2022/12/10 00:25:42;;;;;;;;;62.00;45.33;;;;;3.93;68.51;100403.63;5072115;28;45627;-67
2022/12/10 00:28:07;;;;;;;;;63.00;48.67;;;;;4.04;67.73;100408.22;5090171;27;45515;-67
2022/12/10 00:30:33;;;;;;;;;64.00;48.33;;;;;4.21;67.57;100412.91;5074194;28;45437;-72
2022/12/10 00:32:59;;;;;;;;;57.67;44.33;;;;;4.30;67.17;100405.34;5060956;27;46029;-72
2022/12/10 00:35:25;;;;;;;;;60.00;45.75;;;;;4.37;67.24;100399.44;5071327;27;45920;-68
2022/12/10 00:37:50;;;;;;;;;58.50;46.25;;;;;4.41;66.92;100397.78;5074286;27;45311;-74
2022/12/10 00:40:16;;;;;;;;;56.75;44.00;;;;;4.44;66.53;100395.28;5074205;28;45493;-71
2022/12/10 00:42:41;;;;;;;;;57.50;45.50;;;;;4.44;67.21;100398.72;5073612;27;45436;-67
2022/12/10 00:45:07;;;;;;;;;58.00;44.75;;;;;4.45;66.42;100408.25;5072618;28;45434;-72
2022/12/10 00:47:33;;;;;;;;;58.00;44.50;;;;;4.57;66.78;100422.34;5073406;28;45314;-75
2022/12/10 00:49:58;;;;;;;;;54.75;43.25;;;;;4.61;66.03;100413.78;5074743;28;45345;-75
2022/12/10 00:52:24;;;;;;;;;58.25;45.00;;;;;4.62;66.21;100411.19;5062596;27;45771;-64
2022/12/10 00:54:50;;;;;;;;;57.00;44.50;;;;;4.70;66.26;100413.06;5068366;27;45444;-63
2022/12/10 00:57:15;;;;;;;;;58.50;45.25;;;;;4.79;65.62;100427.13;5059770;27;45414;-65
2022/12/10 00:59:41;;;;;;;;;56.75;42.25;;;;;4.82;66.14;100423.72;5101743;27;45531;-68
2022/12/10 01:02:07;;;;;;;;;55.50;40.75;;;;;4.82;65.50;100414.22;5067578;27;45799;-64
2022/12/10 01:04:32;;;;;;;;;55.75;45.00;;;;;4.75;65.65;100401.09;5061206;28;45564;-65
2022/12/10 01:06:59;;;;;;;;;58.00;43.25;;;;;4.85;65.80;100418.59;5072178;28;45726;-65
2022/12/10 01:09:27;;;;;;;;;56.50;42.25;;;;;4.92;65.66;100425.66;5073797;27;45532;-64
2022/12/10 01:11:55;;;;;;;;;56.50;43.25;;;;;4.95;65.04;100419.66;5090231;27;46864;-64
2022/12/10 01:14:27;;;;;;;;;56.75;43.50;;;;;4.88;65.23;100410.84;5077471;27;45716;-64
2022/12/10 01:16:55;;;;;;;;;51.75;42.00;;;;;4.99;65.21;100424.06;5081069;27;45542;-64
2022/12/10 01:19:21;;;;;;;;;57.25;43.50;;;;;4.96;65.11;100426.56;5077306;28;45456;-65
2022/12/10 01:21:54;;;;;;;;;55.00;44.00;;;;;5.00;65.20;100434.44;5076731;28;46603;-67
2022/12/10 01:24:21;;;;;;;;;60.25;44.75;;;;;4.86;65.10;100413.44;5093058;27;45791;-63
2022/12/10 01:26:46;;;;;;;;;58.75;44.00;;;;;4.95;65.35;100430.91;5075448;28;45531;-65
2022/12/10 01:29:12;;;;;;;;;54.50;43.00;;;;;4.96;64.73;100434.38;5079792;27;45460;-63
2022/12/10 01:31:38;;;;;;;;;56.00;43.50;;;;;4.97;64.97;100433.53;5080535;28;45759;-63
2022/12/10 01:34:05;;;;;;;;;69.00;50.33;;;;;4.98;65.44;100443.94;5066734;28;45430;-67
2022/12/10 01:36:35;;;;;;;;;61.50;47.00;;;;;4.88;65.36;100431.63;5057129;27;45437;-63
2022/12/10 01:39:02;;;;;;;;;58.25;46.75;;;;;4.92;65.24;100443.81;5057655;27;45511;-63
2022/12/10 01:41:56;;;;;;;;;61.50;45.75;;;;;4.68;65.38;100411.34;5063158;27;45760;-64
2022/12/10 01:44:21;;;;;;;;;58.25;45.50;;;;;4.94;65.24;100455.13;5063899;27;45851;-63
2022/12/10 01:46:50;;;;;;;;;57.50;44.75;;;;;4.98;65.40;100459.50;5077936;27;45542;-67
2022/12/10 01:49:25;;;;;;;;;59.00;46.75;;;;;4.86;65.33;100438.50;5061223;27;45762;-63
2022/12/10 01:51:54;;;;;;;;;55.50;44.25;;;;;4.98;64.66;100462.09;5055189;27;46276;-63
2022/12/10 01:54:25;;;;;;;;;61.25;46.50;;;;;5.02;65.54;100465.66;5068578;27;45595;-64
2022/12/10 01:56:58;;;;;;;;;58.50;45.75;;;;;5.05;64.54;100473.47;5073386;27;45630;-63
2022/12/10 01:59:25;;;;;;;;;58.25;45.50;;;;;5.02;65.17;100471.72;5072828;27;46048;-63
2022/12/10 02:02:22;;;;;;;;;59.25;44.50;;;;;5.00;65.39;100467.31;5069171;27;46666;-64
2022/12/10 02:05:00;;;;;;;;;63.25;47.25;;;;;5.10;64.73;100482.22;5103401;27;45452;-63
2022/12/10 02:07:33;;;;;;;;;62.75;46.00;;;;;5.09;65.38;100475.31;5069376;28;45413;-65
2022/12/10 02:10:17;;;;;;;;;56.75;45.25;;;;;5.03;65.63;100470.88;5075758;27;45415;-67
2022/12/10 02:13:11;;;;;;;;;57.75;45.25;;;;;5.13;65.31;100482.31;5063639;27;45317;-63
2022/12/10 02:15:47;;;;;;;;;61.00;45.25;;;;;5.12;65.05;100482.28;5061514;27;45482;-64
2022/12/10 02:18:28;;;;;;;;;65.00;48.50;;;;;5.13;65.37;100481.44;5088948;27;45358;-64
2022/12/10 02:21:07;;;;;;;;;62.25;46.75;;;;;5.12;65.63;100485.75;5054829;27;45866;-65
2022/12/10 02:23:38;;;;;;;;;60.50;46.25;;;;;5.11;65.01;100486.59;5052974;27;47234;-64
2022/12/10 02:26:18;;;;;;;;;63.50;46.75;;;;;5.09;65.10;100480.50;5057849;27;45489;-64
2022/12/10 02:28:54;;;;;;;;;60.00;47.00;;;;;5.10;65.66;100482.22;5091000;27;46290;-63
2022/12/10 02:31:27;;;;;;;;;57.50;45.75;;;;;5.09;65.46;100488.28;5061377;27;45477;-64
2022/12/10 02:33:58;;;;;;;;;54.25;42.25;;;;;5.12;64.80;100493.53;5062203;27;46137;-63
2022/12/10 02:36:28;;;;;;;;;59.75;43.00;;;;;5.08;64.58;100495.22;5058025;27;45528;-69
2022/12/10 02:38:57;;;;;;;;;54.00;41.00;;;;;5.09;64.90;100498.66;5060200;27;45484;-68
2022/12/10 02:41:28;;;;;;;;;56.50;43.25;;;;;5.04;64.86;100488.19;5067791;28;45620;-62
2022/12/10 02:43:57;;;;;;;;;50.50;40.50;;;;;5.02;64.99;100494.19;5079167;28;45985;-62
2022/12/10 02:46:28;;;;;;;;;54.00;41.25;;;;;5.05;65.35;100499.44;5075751;28;45886;-68
2022/12/10 02:48:54;;;;;;;;;61.75;43.00;;;;;5.01;65.02;100495.06;5075249;27;45294;-71
2022/12/10 02:51:20;;;;;;;;;53.25;42.25;;;;;5.04;65.68;100500.31;5074111;28;45828;-72
2022/12/10 02:53:46;;;;;;;;;55.25;42.25;;;;;5.01;64.95;100498.53;5076622;28;45495;-73
2022/12/10 02:56:34;;;;;;;;;55.50;41.75;;;;;4.87;65.42;100474.88;5092530;27;45554;-76
2022/12/10 02:59:13;;;;;;;;;50.00;38.50;;;;;4.87;65.28;100474.88;5075295;28;45421;-70
2022/12/10 03:01:59;;;;;;;;;50.75;39.00;;;;;4.94;65.39;100490.59;5076520;27;45639;-69
2022/12/10 03:04:39;;;;;;;;;49.50;40.00;;;;;4.95;65.62;100490.59;5075500;28;46383;-69
2022/12/10 03:07:14;;;;;;;;;22.75;17.75;;;;;5.02;65.70;100499.38;5093725;27;45385;-66
2022/12/10 03:09:48;;;;;;;;;48.75;36.25;;;;;4.99;65.21;100488.94;5077963;27;45555;-66
2022/12/10 03:12:25;;;;;;;;;49.25;39.25;;;;;5.01;65.47;100490.72;5079335;27;45540;-69
2022/12/10 03:14:54;;;;;;;;;53.75;38.25;;;;;5.02;65.40;100492.47;5078905;28;45739;-62
2022/12/10 03:17:20;;;;;;;;;48.75;36.75;;;;;5.01;65.78;100489.88;5067803;27;45441;-64
2022/12/10 03:19:50;;;;;;;;;48.50;37.00;;;;;5.04;65.79;100493.38;5090486;27;45400;-63
2022/12/10 03:22:20;;;;;;;;;51.50;38.75;;;;;4.94;65.64;100478.47;5078391;28;45425;-63
2022/12/10 03:24:47;;;;;;;;;50.50;38.50;;;;;5.06;65.16;100496.03;5075094;28;45913;-78
2022/12/10 03:27:17;;;;;;;;;44.75;37.00;;;;;5.03;64.99;100488.16;5090447;27;45427;-69
2022/12/10 03:29:50;;;;;;;;;49.50;39.00;;;;;5.07;64.81;100508.16;5075100;28;45346;-64
2022/12/10 03:32:18;;;;;;;;;48.75;36.25;;;;;5.06;65.03;100507.28;5074527;27;45476;-67
2022/12/10 03:34:44;;;;;;;;;47.75;38.75;;;;;5.02;65.02;100504.56;5090196;27;46351;-65
2022/12/10 03:37:12;;;;;;;;;44.25;34.75;;;;;4.94;64.55;100490.59;5077159;27;45441;-63
2022/12/10 03:39:39;;;;;;;;;52.00;37.00;;;;;4.88;64.99;100483.53;5073330;27;45690;-67
2022/12/10 03:42:06;;;;;;;;;50.75;36.00;;;;;5.01;65.03;100508.03;5089578;27;45896;-62
2022/12/10 03:44:34;;;;;;;;;49.25;37.00;;;;;5.02;64.70;100505.44;5074208;28;45528;-64
2022/12/10 03:47:01;;;;;;;;;48.50;36.00;;;;;4.98;65.32;100498.44;5073965;28;45639;-64
2022/12/10 03:49:27;;;;;;;;;47.50;34.75;;;;;4.96;64.76;100497.56;5078083;28;45508;-64
2022/12/10 03:51:53;;;;;;;;;46.50;34.50;;;;;5.03;65.16;100512.41;5074226;28;45398;-65
2022/12/10 03:54:19;;;;;;;;;44.75;35.25;;;;;4.80;64.44;100470.41;5092120;27;47384;-64
2022/12/10 03:56:45;;;;;;;;;44.50;36.25;;;;;5.02;64.39;100502.84;5078254;28;45428;-64
2022/12/10 03:59:11;;;;;;;;;46.00;35.50;;;;;5.06;64.51;100507.28;5078428;28;45374;-64
2022/12/10 04:01:37;;;;;;;;;46.50;33.50;;;;;5.06;64.85;100507.28;5094041;27;45544;-66
2022/12/10 04:04:05;;;;;;;;;46.25;36.25;;;;;5.05;64.79;100515.91;5078424;27;45409;-62
2022/12/10 04:06:31;;;;;;;;;47.00;34.00;;;;;5.05;64.78;100515.91;5078277;27;45460;-67
2022/12/10 04:08:57;;;;;;;;;39.25;33.75;;;;;5.09;64.68;100522.03;5074261;28;45720;-69
2022/12/10 04:11:23;;;;;;;;;44.25;35.75;;;;;5.08;64.68;100517.69;5089524;27;45554;-63
2022/12/10 04:16:34;;;;;;;;;39.25;33.00;;;;;4.98;64.92;100519.19;5074546;28;45411;-67
2022/12/10 04:19:11;;;;;;;;;48.50;34.25;;;;;5.02;64.50;100522.75;5075340;28;45402;-74
2022/12/10 04:27:12;;;;;;;;;43.00;34.00;;;;;4.98;64.08;100516.59;5074010;28;45315;-77
2022/12/10 04:29:39;;;;;;;;;38.75;31.25;;;;;4.96;64.17;100525.19;5073920;28;45451;-79
2022/12/10 04:32:05;;;;;;;;;39.75;33.00;;;;;4.93;63.95;100519.97;5076234;28;45352;-63
2022/12/10 04:34:32;;;;;;;;;41.25;34.50;;;;;4.87;63.96;100520.72;5075138;28;46190;-65
2022/12/10 04:36:59;;;;;;;;;37.50;32.25;;;;;4.93;64.63;100541.59;5073179;28;45743;-64
2022/12/10 04:39:25;;;;;;;;;47.25;36.00;;;;;4.90;63.98;100536.34;5072087;27;45839;-64
2022/12/10 04:41:51;;;;;;;;;45.75;36.00;;;;;4.85;64.21;100531.03;5073626;27;45322;-63
2022/12/10 04:44:18;;;;;;;;;38.75;31.00;;;;;4.82;64.09;100535.31;5090043;27;46406;-62
2022/12/10 04:46:44;;;;;;;;;42.75;33.00;;;;;4.78;64.04;100534.34;5077520;27;45471;-66
2022/12/10 04:49:12;;;;;;;;;33.25;26.25;;;;;4.83;64.14;100547.44;5072829;28;45717;-65
2022/12/10 04:51:40;;;;;;;;;35.25;29.50;;;;;4.79;64.35;100546.50;5073695;28;45774;-64
2022/12/10 04:54:07;;;;;;;;;39.25;33.00;;;;;4.83;64.10;100550.91;5073389;28;45859;-64
2022/12/10 04:56:33;;;;;;;;;34.00;31.00;;;;;4.79;64.43;100533.53;5088948;27;45691;-64
2022/12/10 04:59:00;;;;;;;;;34.25;29.50;;;;;4.89;63.98;100547.56;5073602;27;45491;-63
2022/12/10 05:01:26;;;;;;;;;33.00;27.00;;;;;4.88;63.36;100540.63;5074805;28;45360;-65
2022/12/10 05:03:53;;;;;;;;;37.50;32.50;;;;;4.79;63.93;100548.19;5089135;27;45777;-66
2022/12/10 05:06:20;;;;;;;;;44.25;34.75;;;;;4.80;63.52;100552.56;5073642;28;45492;-64
2022/12/10 05:08:46;;;;;;;;;38.50;32.25;;;;;4.73;63.32;100542.88;5077715;28;45274;-64
2022/12/10 05:11:17;;;;;;;;;43.00;30.75;;;;;4.77;63.19;100553.38;5077723;28;45457;-63
2022/12/10 05:13:43;;;;;;;;;29.00;23.50;;;;;4.80;63.69;100547.38;5077029;28;45347;-64
2022/12/10 05:16:11;;;;;;;;;31.75;28.00;;;;;4.76;63.97;100537.75;5060656;28;45983;-64
2022/12/10 05:18:38;;;;;;;;;28.25;25.00;;;;;4.84;63.53;100541.38;5059510;28;45500;-63
2022/12/10 05:21:10;;;;;;;;;34.75;26.25;;;;;4.78;63.37;100523.09;5068984;28;45377;-64
2022/12/10 05:23:38;;;;;;;;;32.75;31.00;;;;;4.79;63.44;100537.81;5072400;28;46167;-64
2022/12/10 05:26:07;;;;;;;;;31.75;25.50;;;;;4.82;63.69;100532.72;5075304;27;45704;-63
2022/12/10 05:28:38;;;;;;;;;29.50;27.75;;;;;4.88;63.30;100556.19;5075507;28;45375;-63
2022/12/10 05:31:05;;;;;;;;;34.25;29.00;;;;;4.88;63.60;100551.00;5072959;28;45543;-62
2022/12/10 05:33:31;;;;;;;;;32.75;31.00;;;;;4.74;62.91;100526.47;5072320;28;46542;-63
2022/12/10 05:36:03;;;;;;;;;35.00;28.50;;;;;4.86;62.81;100560.47;5088631;27;45344;-64
2022/12/10 05:38:30;;;;;;;;;34.00;29.25;;;;;4.88;63.03;100557.06;5073322;28;45863;-67
2022/12/10 05:41:04;;;;;;;;;37.00;31.00;;;;;4.87;63.05;100565.69;5077244;27;45388;-64
2022/12/10 05:43:29;;;;;;;;;38.00;29.50;;;;;4.86;62.86;100553.56;5073675;27;46185;-69
2022/12/10 05:46:03;;;;;;;;;37.50;31.75;;;;;4.81;63.21;100556.91;5072477;28;46329;-67
2022/12/10 05:48:29;;;;;;;;;34.50;28.50;;;;;4.83;62.68;100566.47;5072078;28;45729;-68
2022/12/10 05:50:55;;;;;;;;;38.25;27.25;;;;;4.80;62.85;100566.41;5072865;28;45633;-65
2022/12/10 05:53:21;;;;;;;;;31.50;29.75;;;;;4.75;62.58;100562.84;5075457;27;46407;-64
2022/12/10 05:55:47;;;;;;;;;35.25;30.50;;;;;4.74;63.19;100566.25;5076849;28;45283;-64
2022/12/10 05:58:12;;;;;;;;;37.00;27.75;;;;;4.82;62.37;100584.63;5073241;28;45409;-69
2022/12/10 06:00:41;;;;;;;;;37.25;27.50;;;;;4.77;62.67;100571.53;5070877;28;45526;-64
2022/12/10 06:03:08;;;;;;;;;25.50;20.00;;;;;4.78;62.56;100575.00;5074469;28;46081;-64
2022/12/10 06:05:40;;;;;;;;;26.25;21.25;;;;;4.75;62.84;100575.81;5075877;28;45496;-63
2022/12/10 06:08:06;;;;;;;;;29.00;23.50;;;;;4.80;63.02;100581.09;5076065;28;45451;-64
2022/12/10 06:10:35;;;;;;;;;32.00;24.00;;;;;4.76;62.85;100587.06;5076196;27;45534;-65
2022/12/10 06:13:01;;;;;;;;;26.25;24.75;;;;;4.79;63.25;100602.69;5079555;28;46343;-63
2022/12/10 06:15:26;;;;;;;;;31.25;27.25;;;;;4.83;63.38;100601.91;5071938;28;45406;-64
2022/12/10 06:17:54;;;;;;;;;27.75;24.50;;;;;4.82;63.33;100592.41;5074039;28;45485;-66
2022/12/10 06:20:20;;;;;;;;;32.75;25.75;;;;;4.78;63.09;100587.97;5080178;27;45492;-64
2022/12/10 06:22:45;;;;;;;;;33.75;29.25;;;;;4.76;63.04;100590.53;5075302;28;46558;-68
2022/12/10 06:25:11;;;;;;;;;35.00;27.00;;;;;4.85;63.01;100605.44;5075347;27;45680;-63
2022/12/10 06:27:37;;;;;;;;;32.50;27.25;;;;;4.83;62.99;100591.53;5074172;27;45731;-63
2022/12/10 06:30:02;;;;;;;;;34.50;28.75;;;;;4.90;63.30;100603.81;5076386;27;45473;-66
2022/12/10 06:32:28;;;;;;;;;37.50;28.75;;;;;4.93;63.06;100603.00;5079818;28;45687;-65
2022/12/10 06:34:54;;;;;;;;;32.50;25.50;;;;;4.84;63.55;100593.28;5077286;28;45498;-64
2022/12/10 06:37:19;;;;;;;;;33.75;28.00;;;;;4.97;63.29;100607.44;5075810;28;45625;-63
2022/12/10 06:39:45;;;;;;;;;35.00;26.50;;;;;4.93;63.57;100605.59;5094202;27;45680;-64
2022/12/10 06:42:11;;;;;;;;;35.50;29.75;;;;;4.92;63.25;100596.94;5079022;27;45426;-68
2022/12/10 06:44:36;;;;;;;;;32.50;27.00;;;;;4.98;62.90;100611.78;5075435;28;45448;-63
2022/12/10 06:47:02;;;;;;;;;34.25;28.75;;;;;4.96;63.02;100609.16;5076579;28;45534;-64
2022/12/10 06:49:30;;;;;;;;;29.50;29.00;;;;;4.94;62.74;100604.78;5076847;28;45528;-65
2022/12/10 06:51:56;;;;;;;;;37.00;30.25;;;;;4.95;63.49;100604.78;5074786;28;45511;-64
2022/12/10 06:54:21;;;;;;;;;32.25;27.75;;;;;5.02;63.32;100617.06;5078800;27;45408;-64
2022/12/10 06:56:47;;;;;;;;;36.00;30.25;;;;;4.91;62.95;100605.56;5074968;28;45424;-65
2022/12/10 06:59:12;;;;;;;;;34.75;30.50;;;;;5.05;63.03;100624.03;5074897;27;45982;-70
2022/12/10 07:01:39;;;;;;;;;36.75;28.25;;;;;5.02;62.67;100631.78;5073447;28;47552;-68
2022/12/10 07:04:05;;;;;;;;;33.75;27.50;;;;;5.05;63.42;100639.63;5074543;28;45688;-63
2022/12/10 07:06:31;;;;;;;;;30.00;26.00;;;;;4.84;63.12;100612.34;5073289;27;45757;-68
2022/12/10 07:08:57;;;;;;;;;31.00;27.00;;;;;5.06;63.01;100652.66;5090434;27;45510;-69
2022/12/10 07:11:24;;;;;;;;;39.75;28.75;;;;;4.84;62.81;100617.53;5091032;27;46664;-65
2022/12/10 07:13:51;;;;;;;;;35.25;28.00;;;;;5.00;63.21;100652.50;5074796;27;45761;-64
2022/12/10 07:16:20;;;;;;;;;32.25;25.75;;;;;5.01;63.05;100656.00;5060658;27;45382;-65
2022/12/10 07:18:48;;;;;;;;;28.50;27.25;;;;;4.99;63.00;100655.94;5074833;27;45334;-66
2022/12/10 07:21:28;;;;;;;;;34.75;30.00;;;;;4.85;62.94;100639.16;5077737;28;45662;-65
2022/12/10 07:23:57;;;;;;;;;39.75;26.75;;;;;4.95;62.89;100664.50;5074454;28;45429;-70
2022/12/10 07:26:28;;;;;;;;;34.00;25.75;;;;;4.82;63.03;100657.28;5074833;27;45411;-64
2022/12/10 07:28:54;;;;;;;;;30.50;25.75;;;;;4.84;63.29;100663.34;5090814;27;45451;-67
2022/12/10 07:31:21;;;;;;;;;30.75;28.25;;;;;4.81;63.46;100660.69;5090390;27;48151;-63
2022/12/10 07:33:48;;;;;;;;;33.50;26.75;;;;;4.85;63.37;100662.53;5074600;28;45364;-63
2022/12/10 07:36:14;;;;;;;;;32.50;26.50;;;;;4.82;62.95;100658.16;5074595;28;45385;-70
2022/12/10 07:38:39;;;;;;;;;32.50;28.00;;;;;4.90;63.32;100676.47;5093959;27;45626;-68
2022/12/10 07:41:08;;;;;;;;;33.75;26.00;;;;;4.92;62.71;100674.81;5078845;28;45381;-63
2022/12/10 07:43:39;;;;;;;;;34.25;27.00;;;;;4.94;63.44;100675.72;5077951;27;46499;-65
2022/12/10 07:46:19;;;;;;;;;29.25;23.25;;;;;4.97;62.59;100677.50;5077145;27;45552;-63
2022/12/10 07:48:48;;;;;;;;;33.25;29.25;;;;;4.91;62.83;100678.22;5076120;28;45531;-63
2022/12/10 07:51:15;;;;;;;;;29.50;22.25;;;;;4.97;62.34;100687.91;5076685;27;47492;-70
2022/12/10 07:53:42;;;;;;;;;30.50;25.25;;;;;4.93;62.59;100699.91;5074103;28;45366;-63
2022/12/10 07:56:09;;;;;;;;;30.50;26.00;;;;;4.82;63.48;100680.63;5076353;27;45550;-75
2022/12/10 07:58:35;;;;;;;;;30.00;25.75;;;;;4.91;63.03;100687.72;5079099;28;45514;-76
2022/12/10 08:01:09;;;;;;;;;30.00;26.00;;;;;4.84;63.00;100671.13;5078074;28;45495;-77
2022/12/10 08:03:35;;;;;;;;;32.50;27.75;;;;;4.91;63.20;100695.53;5084616;27;45794;-72
2022/12/10 08:06:06;;;;;;;;;37.00;29.75;;;;;4.85;63.43;100699.72;5074181;27;45910;-77
2022/12/10 08:08:33;;;;;;;;;34.75;28.00;;;;;4.80;63.41;100700.47;5072706;28;45581;-63
2022/12/10 08:11:00;;;;;;;;;31.25;26.75;;;;;4.84;63.39;100700.59;5054711;28;45991;-64
2022/12/10 08:13:26;;;;;;;;;28.00;27.25;;;;;4.91;63.01;100704.19;5061241;28;45486;-64
2022/12/10 08:15:52;;;;;;;;;28.25;25.50;;;;;4.89;63.46;100696.38;5053888;27;45507;-64
2022/12/10 08:18:18;;;;;;;;;38.00;32.25;;;;;4.98;63.19;100713.00;5071194;28;45468;-66
2022/12/10 08:20:43;;;;;;;;;34.50;26.25;;;;;4.96;63.23;100719.88;5073407;27;46354;-64
2022/12/10 08:23:09;;;;;;;;;39.25;31.75;;;;;4.99;63.17;100727.75;5075409;28;45477;-62
2022/12/10 08:25:37;;;;;;;;;33.50;26.00;;;;;5.07;62.54;100728.81;5090436;27;46047;-62
2022/12/10 08:28:03;;;;;;;;;35.25;32.25;;;;;5.08;62.92;100728.84;5106376;27;45669;-62
2022/12/10 08:30:30;;;;;;;;;33.00;27.25;;;;;5.20;62.85;100730.00;5076003;28;45423;-63
2022/12/10 08:32:58;;;;;;;;;27.75;24.75;;;;;5.27;62.74;100747.47;5075794;27;45815;-65
2022/12/10 08:35:37;;;;;;;;;30.50;26.25;;;;;5.29;62.54;100744.06;5074739;28;45726;-64
2022/12/10 08:38:05;;;;;;;;;31.25;29.50;;;;;5.34;62.75;100730.28;5074394;28;45729;-62
2022/12/10 08:40:31;;;;;;;;;33.00;27.75;;;;;5.39;62.08;100739.09;5073093;27;46030;-64
2022/12/10 08:42:57;;;;;;;;;32.25;25.50;;;;;5.46;61.82;100741.00;5073427;28;45904;-62
2022/12/10 08:45:23;;;;;;;;;31.50;26.75;;;;;5.35;61.90;100712.16;5068468;27;45587;-63
2022/12/10 08:47:48;;;;;;;;;33.50;28.75;;;;;5.45;61.50;100726.22;5063068;27;45441;-65
2022/12/10 08:50:14;;;;;;;;;31.00;28.50;;;;;5.42;61.21;100733.97;5050215;28;45636;-63
2022/12/10 08:52:43;;;;;;;;;33.25;26.50;;;;;5.36;61.59;100731.22;5067767;27;45539;-62
2022/12/10 08:55:09;;;;;;;;;34.50;31.75;;;;;5.42;61.30;100742.63;5056051;28;45488;-65
2022/12/10 08:57:34;;;;;;;;;45.25;35.50;;;;;5.07;61.69;100684.66;5034008;28;45513;-64
2022/12/10 09:00:00;;;;;;;;;43.50;32.50;;;;;5.21;61.12;100724.81;5051378;28;45620;-69
2022/12/10 09:02:25;;;;;;;;;35.50;31.00;;;;;5.23;61.76;100728.31;5054859;28;45974;-64
2022/12/10 09:04:52;;;;;;;;;38.50;28.00;;;;;5.35;61.24;100743.31;5051515;27;45314;-63
2022/12/10 09:07:18;;;;;;;;;37.75;30.75;;;;;5.13;61.38;100715.09;5052718;27;45690;-65
2022/12/10 09:09:44;;;;;;;;;34.75;32.00;;;;;5.42;61.19;100763.41;5052264;28;45465;-64
2022/12/10 09:12:09;;;;;;;;;36.25;29.75;;;;;5.51;61.44;100771.41;5055998;28;45337;-76
2022/12/10 09:14:35;;;;;;;;;42.50;29.00;;;;;5.49;61.74;100757.50;5051869;27;45454;-64
2022/12/10 09:17:03;;;;;;;;;33.00;26.75;;;;;5.49;61.79;100759.22;5061412;28;45524;-63
2022/12/10 09:19:29;;;;;;;;;35.50;30.25;;;;;5.58;62.20;100768.97;5076727;28;45402;-62
2022/12/10 09:21:55;;;;;;;;;34.00;29.50;;;;;5.68;65.96;100776.13;5076879;27;45362;-64
2022/12/10 09:24:20;;;;;;;;;37.75;30.00;;;;;5.70;61.95;100757.13;5077158;28;45288;-64
2022/12/10 09:26:46;;;;;;;;;36.00;31.25;;;;;5.85;61.41;100760.88;5071452;28;45591;-65
2022/12/10 09:29:13;;;;;;;;;36.50;31.75;;;;;5.90;61.19;100759.25;5072373;27;46216;-72
2022/12/10 09:31:38;;;;;;;;;43.00;34.25;;;;;5.96;60.68;100769.84;5073639;27;45764;-63
2022/12/10 09:34:04;;;;;;;;;42.00;32.50;;;;;6.03;61.14;100776.06;5076679;27;45461;-64
2022/12/10 09:36:29;;;;;;;;;35.50;30.00;;;;;5.90;60.76;100733.28;5076019;27;45304;-62
2022/12/10 09:38:55;;;;;;;;;38.00;30.00;;;;;6.23;60.37;100771.25;5071346;27;46039;-67
2022/12/10 09:41:39;;;;;;;;;34.50;27.75;;;;;6.33;60.22;100778.38;5071856;27;45632;-62
2022/12/10 09:44:11;;;;;;;;;43.00;33.75;;;;;6.44;59.94;100769.06;5055532;27;45564;-62
2022/12/10 09:46:57;;;;;;;;;34.00;30.00;;;;;6.53;59.60;100776.19;5088255;27;45496;-63
2022/12/10 09:49:41;;;;;;;;;37.75;29.50;;;;;6.55;59.47;100774.50;5080063;27;47264;-62
2022/12/10 09:52:13;;;;;;;;;41.00;31.25;;;;;8.91;54.80;100774.38;5055041;27;45445;-61
2022/12/10 09:54:43;;;;;;;;;32.75;29.00;;;;;9.58;52.24;100773.16;5055533;27;45415;-64
2022/12/10 09:57:23;;;;;;;;;34.50;29.50;;;;;9.70;52.07;100774.09;5065590;27;45826;-63
2022/12/10 09:59:51;;;;;;;;;34.25;26.75;;;;;9.41;52.03;100778.28;5060140;27;45541;-62
2022/12/10 10:02:27;;;;;;;;;33.25;31.00;;;;;9.09;52.09;100774.56;5067195;27;45516;-63
2022/12/10 10:05:06;;;;;;;;;38.25;30.50;;;;;9.04;53.17;100784.09;5078911;27;45496;-63
2022/12/10 10:07:36;;;;;;;;;42.50;32.00;;;;;9.02;51.95;100780.59;5053811;27;46002;-62
2022/12/10 10:10:06;;;;;;;;;42.50;31.00;;;;;8.94;52.89;100789.19;5054947;27;46721;-63
2022/12/10 10:12:33;;;;;;;;;33.50;27.75;;;;;11.18;49.69;100767.63;5068106;27;45576;-63
2022/12/10 10:15:12;;;;;;;;;31.75;26.75;;;;;13.44;44.47;100766.66;5058010;27;45548;-69
2022/12/10 10:17:38;;;;;;;;;29.25;25.75;;;;;12.51;44.55;100747.16;5100287;27;45308;-65
2022/12/10 10:20:07;;;;;;;;;23.50;20.75;;;;;11.99;45.49;100758.78;5072296;27;45349;-63
2022/12/10 10:22:33;;;;;;;;;30.50;25.00;;;;;11.64;45.73;100743.97;5056777;27;45532;-63
2022/12/10 10:25:02;;;;;;;;;26.25;23.00;;;;;11.34;46.73;100765.88;5053412;27;45311;-67
2022/12/10 10:27:29;;;;;;;;;29.00;21.75;;;;;11.24;46.46;100761.50;5056293;27;45528;-64
2022/12/10 10:29:57;;;;;;;;;29.75;21.75;;;;;13.79;44.28;100757.53;5057710;27;46084;-67
2022/12/10 10:32:28;;;;;;;;;21.75;20.25;;;;;17.46;38.42;100744.66;5070742;27;45811;-64
2022/12/10 10:34:57;;;;;;;;;25.75;20.50;;;;;20.10;32.98;100734.59;5062580;27;45613;-64
2022/12/10 10:37:31;;;;;;;;;22.25;19.00;;;;;21.89;30.92;100737.94;5070564;27;45287;-65
2022/12/10 10:39:58;;;;;;;;;25.75;19.25;;;;;22.38;29.03;100728.59;5058299;27;47656;-64
2022/12/10 10:42:43;;;;;;;;;21.67;18.67;;;;;22.19;29.90;100735.69;5062618;27;45515;-65
2022/12/10 10:45:41;;;;;;;;;17.67;17.00;;;;;23.83;26.99;100729.41;5057856;27;45559;-66
2022/12/10 10:48:12;;;;;;;;;19.67;15.33;;;;;23.83;27.44;100732.09;5054783;27;45476;-62
2022/12/10 10:51:22;;;;;;;;;18.67;16.33;;;;;24.62;26.17;100734.03;5075963;27;46063;-68
2022/12/10 10:53:51;;;;;;;;;24.00;16.67;;;;;24.66;25.33;100732.91;5058118;27;45231;-67
2022/12/10 10:56:23;;;;;;;;;23.33;19.67;;;;;22.50;27.09;100726.28;5054401;27;45782;-62
2022/12/10 10:58:58;;;;;;;;;25.33;21.67;;;;;20.50;27.88;100741.03;5053801;27;45453;-64
2022/12/10 11:01:26;;;;;;;;;28.33;23.00;;;;;18.39;31.86;100743.88;5053625;27;46404;-62
2022/12/10 11:03:58;;;;;;;;;25.00;22.00;;;;;17.55;33.44;100747.94;5053967;27;45719;-64
2022/12/10 11:06:24;;;;;;;;;25.67;24.00;;;;;18.49;32.45;100747.09;5054190;28;45980;-63
2022/12/10 11:08:55;;;;;;;;;22.33;21.33;;;;;17.69;33.26;100752.00;5054848;27;45308;-63
2022/12/10 11:11:42;;;;;;;;;23.33;22.33;;;;;16.13;35.26;100756.56;5054090;27;45817;-65
2022/12/10 11:14:43;;;;;;;;;23.00;20.33;;;;;14.92;37.26;100756.94;5056045;27;45531;-63
2022/12/10 11:17:14;;;;;;;;;25.33;22.67;;;;;14.00;38.22;100761.69;5062000;28;45606;-66
2022/12/10 11:20:00;;;;;;;;;34.75;26.75;;;;;13.29;40.11;100766.81;5074731;28;45641;-64
2022/12/10 11:22:31;;;;;;;;;28.00;21.50;;;;;13.00;40.09;100759.97;5077139;28;47040;-65
2022/12/10 11:24:58;;;;;;;;;24.00;19.25;;;;;12.87;43.28;100767.06;5074457;28;45384;-63
2022/12/10 11:27:43;;;;;;;;;24.25;21.75;;;;;12.68;41.77;100765.47;5065436;27;45394;-68
2022/12/10 11:30:14;;;;;;;;;30.50;23.25;;;;;12.27;42.08;100749.03;5069727;28;45579;-63
2022/12/10 11:32:58;;;;;;;;;28.25;25.50;;;;;12.11;42.50;100750.00;5089319;27;47825;-65
2022/12/10 11:35:42;;;;;;;;;25.50;22.75;;;;;12.05;42.28;100765.75;5073476;27;45502;-62